Time;durP1;ratioP1;P1;durP2;ratioP2;P2;SDS_P1;SDS_P2;PMS_P1;PMS_P2;Temp;Humidity;BMP_temperature;BMP_pressure;BME280_temperature;BME280_humidity;BME280_pressure;Samples;Min_cycle;Max_cycle;Signal;HPM_P1;HPM_P2
2021/08/01 00:00:06;;;;;;;33.80;9.33;;;;;;;19.60;87.08;100362.45;1726386;82;20975;-41
2021/08/01 00:02:35;;;;;;;24.95;8.60;;;;;;;19.55;87.44;100368.44;1710938;82;21415;-40
2021/08/01 00:05:01;;;;;;;18.57;7.85;;;;;;;19.50;87.86;100380.50;1736920;82;21532;-39
2021/08/01 00:07:27;;;;;;;14.98;8.80;;;;;;;19.46;88.37;100379.48;1730945;82;20987;-39
2021/08/01 00:09:58;;;;;;;19.73;8.58;;;;;;;19.40;88.73;100379.35;1732285;82;21526;-41
2021/08/01 00:12:27;;;;;;;36.10;9.43;;;;;;;19.34;89.07;100375.29;1728383;82;21261;-40
2021/08/01 00:14:54;;;;;;;21.35;8.68;;;;;;;19.29;89.24;100377.33;1727084;81;21522;-40
2021/08/01 00:17:21;;;;;;;22.87;9.08;;;;;;;19.24;89.48;100376.27;1729506;82;21039;-40
2021/08/01 00:19:48;;;;;;;31.87;8.90;;;;;;;19.20;89.70;100370.82;1733860;82;21035;-40
2021/08/01 00:22:14;;;;;;;22.02;8.60;;;;;;;19.16;89.91;100370.62;1725388;82;20975;-40
2021/08/01 00:24:41;;;;;;;19.67;8.55;;;;;;;19.12;90.00;100373.03;1707513;82;21934;-40
2021/08/01 00:27:08;;;;;;;22.93;8.58;;;;;;;19.08;90.13;100367.58;1706704;82;21580;-40
2021/08/01 00:29:34;;;;;;;21.82;9.98;;;;;;;19.04;90.27;100374.77;1731508;82;20991;-40
2021/08/01 00:32:03;;;;;;;15.75;8.25;;;;;;;19.02;90.45;100369.21;1724918;82;20996;-40
2021/08/01 00:34:30;;;;;;;17.00;7.83;;;;;;;18.98;90.65;100366.36;1705693;82;20987;-39
2021/08/01 00:36:56;;;;;;;16.12;8.25;;;;;;;18.95;90.85;100369.53;1727887;82;21306;-40
2021/08/01 00:39:24;;;;;;;21.87;8.50;;;;;;;18.93;91.24;100368.77;1726541;82;21048;-40
2021/08/01 00:41:50;;;;;;;21.97;8.18;;;;;;;18.93;91.58;100376.63;1724979;82;20925;-40
2021/08/01 00:44:17;;;;;;;32.13;8.85;;;;;;;18.94;91.89;100366.53;1731793;81;20948;-40
2021/08/01 00:46:45;;;;;;;22.20;9.50;;;;;;;18.98;92.17;100364.62;1721662;82;20988;-39
2021/08/01 00:49:12;;;;;;;26.00;8.85;;;;;;;19.04;92.15;100364.73;1728567;82;21147;-40
2021/08/01 00:51:40;;;;;;;22.40;8.20;;;;;;;19.09;92.14;100357.47;1724834;82;22054;-40
2021/08/01 00:54:07;;;;;;;27.73;9.28;;;;;;;19.15;92.03;100367.62;1708472;83;22278;-40
2021/08/01 00:56:36;;;;;;;23.38;8.98;;;;;;;19.18;91.73;100363.95;1723426;82;20940;-39
2021/08/01 00:59:03;;;;;;;30.25;9.83;;;;;;;19.20;91.53;100362.13;1722002;82;20972;-40
2021/08/01 01:01:42;;;;;;;30.20;9.38;;;;;;;19.21;91.22;100364.64;1706252;82;21978;-41
2021/08/01 01:04:39;;;;;;;48.55;9.85;;;;;;;19.18;90.87;100359.57;1699014;82;21052;-40
2021/08/01 01:07:31;;;;;;;22.00;8.53;;;;;;;19.14;90.79;100359.81;1714022;82;21068;-41
2021/08/01 01:10:04;;;;;;;23.00;8.68;;;;;;;19.07;90.72;100364.55;1713121;83;20944;-41
2021/08/01 01:12:48;;;;;;;29.02;8.68;;;;;;;18.98;90.78;100371.18;1725178;82;21128;-40
2021/08/01 01:15:22;;;;;;;26.60;9.18;;;;;;;18.90;90.86;100370.25;1719302;82;21543;-41
2021/08/01 01:17:51;;;;;;;29.40;9.35;;;;;;;18.86;90.87;100370.05;1724062;82;20976;-39
2021/08/01 01:20:39;;;;;;;23.62;8.95;;;;;;;18.80;90.99;100371.66;1725950;82;20968;-39
2021/08/01 01:23:38;;;;;;;25.43;9.53;;;;;;;18.75;91.23;100375.00;1723168;82;20949;-40
2021/08/01 01:26:18;;;;;;;24.80;9.50;;;;;;;18.67;91.38;100368.41;1723091;82;20894;-39
2021/08/01 01:29:11;;;;;;;23.22;9.50;;;;;;;18.60;91.58;100365.75;1720864;82;21148;-39
2021/08/01 01:31:53;;;;;;;20.88;10.32;;;;;;;18.54;91.75;100373.91;1724438;82;20983;-39
2021/08/01 01:34:45;;;;;;;13.78;9.73;;;;;;;18.47;92.04;100371.25;1719483;82;20976;-40
2021/08/01 01:37:15;;;;;;;16.15;9.98;;;;;;;18.40;92.24;100365.95;1718618;82;20937;-40
2021/08/01 01:39:42;;;;;;;15.10;9.78;;;;;;;18.34;92.48;100365.36;1705404;82;21019;-39
2021/08/01 01:42:12;;;;;;;20.00;9.05;;;;;;;18.28;92.59;100360.41;1719223;82;21163;-39
2021/08/01 01:44:43;;;;;;;15.13;9.55;;;;;;;18.24;92.74;100364.98;1721228;82;21028;-39
2021/08/01 01:47:12;;;;;;;16.75;9.43;;;;;;;18.20;92.85;100363.91;1710681;82;20976;-39
2021/08/01 01:49:38;;;;;;;20.12;10.03;;;;;;;18.17;92.99;100364.07;1724056;82;21593;-39
2021/08/01 01:52:08;;;;;;;21.82;10.40;;;;;;;18.14;93.20;100363.75;1716007;82;20992;-39
2021/08/01 01:54:35;;;;;;;21.80;10.53;;;;;;;18.12;93.33;100368.70;1689809;83;21773;-40
2021/08/01 01:57:03;;;;;;;28.27;9.73;;;;;;;18.06;93.39;100365.48;1708985;82;21491;-39
2021/08/01 01:59:32;;;;;;;25.27;9.65;;;;;;;18.05;93.55;100376.02;1710875;82;20996;-39
2021/08/01 02:01:59;;;;;;;18.40;8.93;;;;;;;18.06;93.80;100376.41;1717068;82;21550;-40
2021/08/01 02:04:26;;;;;;;21.27;10.32;;;;;;;18.07;93.81;100375.48;1723676;82;21521;-39
2021/08/01 02:07:11;;;;;;;20.88;9.75;;;;;;;18.06;93.78;100381.64;1728022;82;21940;-40
2021/08/01 02:09:49;;;;;;;25.15;9.85;;;;;;;18.05;93.86;100374.23;1674144;85;21047;-40
2021/08/01 02:12:50;;;;;;;25.72;10.78;;;;;;;18.05;93.90;100375.55;1651843;85;21063;-40
2021/08/01 02:15:20;;;;;;;23.20;9.75;;;;;;;18.06;93.84;100372.03;1724050;82;20976;-40
2021/08/01 02:18:08;;;;;;;20.00;10.65;;;;;;;18.07;93.82;100369.80;1724772;82;20996;-39
2021/08/01 02:20:44;;;;;;;30.12;10.48;;;;;;;18.07;93.86;100373.72;1727129;82;20929;-39
2021/08/01 02:23:27;;;;;;;28.83;10.00;;;;;;;18.07;93.84;100376.34;1721468;82;20968;-40
2021/08/01 02:25:54;;;;;;;27.07;10.53;;;;;;;18.07;93.94;100380.72;1711297;82;20996;-40
2021/08/01 02:28:24;;;;;;;26.60;10.68;;;;;;;18.08;93.93;100373.24;1717603;82;21511;-40
2021/08/01 02:30:53;;;;;;;39.80;10.45;;;;;;;18.11;93.81;100382.73;1720338;82;20933;-40
2021/08/01 02:33:20;;;;;;;19.67;9.50;;;;;;;18.11;93.70;100389.28;1723636;82;21113;-40
2021/08/01 02:35:46;;;;;;;26.45;9.60;;;;;;;18.10;93.58;100383.17;1723270;82;21015;-40
2021/08/01 02:38:14;;;;;;;19.02;9.70;;;;;;;18.12;93.53;100381.33;1727561;82;20964;-40
2021/08/01 02:40:41;;;;;;;26.87;8.90;;;;;;;18.15;93.48;100385.56;1722409;82;21007;-40
2021/08/01 02:43:11;;;;;;;23.00;9.30;;;;;;;18.17;93.41;100383.72;1724632;82;20995;-40
2021/08/01 02:45:41;;;;;;;20.88;9.33;;;;;;;18.19;93.38;100384.48;1707784;82;21165;-40
2021/08/01 02:48:10;;;;;;;15.72;8.58;;;;;;;18.22;93.37;100394.80;1724328;82;21027;-40
2021/08/01 02:50:39;;;;;;;27.35;9.60;;;;;;;18.25;93.41;100388.08;1725829;82;20991;-41
2021/08/01 02:53:11;;;;;;;13.98;8.98;;;;;;;18.27;93.44;100386.23;1722634;82;21011;-40
2021/08/01 02:55:39;;;;;;;16.97;9.70;;;;;;;18.30;93.51;100389.17;1722228;82;21004;-40
2021/08/01 02:58:05;;;;;;;15.58;9.53;;;;;;;18.33;93.67;100385.08;1721921;82;21107;-40
2021/08/01 03:00:34;;;;;;;13.50;9.38;;;;;;;18.36;93.80;100389.70;1723271;82;20933;-40
2021/08/01 03:03:01;;;;;;;16.77;8.70;;;;;;;18.42;93.87;100395.55;1706512;82;20933;-40
2021/08/01 03:05:27;;;;;;;14.38;8.05;;;;;;;18.49;93.97;100403.01;1725053;82;21000;-40
2021/08/01 03:07:54;;;;;;;14.38;7.83;;;;;;;18.55;94.07;100399.20;1723436;82;20976;-40
2021/08/01 03:10:21;;;;;;;18.02;8.40;;;;;;;18.63;94.08;100400.10;1709707;82;21843;-40
2021/08/01 03:12:49;;;;;;;14.35;8.60;;;;;;;18.73;94.25;100403.95;1727088;82;22199;-40
2021/08/01 03:15:18;;;;;;;17.23;8.68;;;;;;;18.83;94.28;100396.88;1725975;82;21525;-40
2021/08/01 03:21:45;;;;;;;12.10;7.90;;;;;;;19.02;94.01;100401.55;1714011;82;21049;-40
2021/08/01 03:24:13;;;;;;;12.60;8.33;;;;;;;19.19;93.99;100399.30;1718493;82;22446;-40
2021/08/01 03:26:54;;;;;;;15.18;9.33;;;;;;;19.30;93.92;100397.39;1722096;82;20964;-40
2021/08/01 03:29:20;;;;;;;13.62;8.38;;;;;;;19.41;93.88;100401.17;1724859;82;21008;-40
2021/08/01 03:31:47;;;;;;;11.03;8.00;;;;;;;19.54;93.65;100399.56;1724320;82;20972;-41
2021/08/01 03:34:14;;;;;;;13.38;7.85;;;;;;;19.66;93.44;100394.08;1722065;82;20987;-40
2021/08/01 03:36:40;;;;;;;17.17;8.88;;;;;;;19.81;93.13;100397.10;1710268;82;21240;-40
2021/08/01 03:39:10;;;;;;;14.00;8.20;;;;;;;19.95;92.73;100402.06;1727704;82;20976;-40
2021/08/01 03:41:41;;;;;;;14.05;8.20;;;;;;;20.06;92.40;100391.75;1732128;82;20924;-39
2021/08/01 03:44:26;;;;;;;12.15;8.40;;;;;;;20.19;92.02;100387.09;1730166;82;21611;-40
2021/08/01 03:46:53;;;;;;;15.58;7.95;;;;;;;20.33;91.67;100380.52;1729556;82;21770;-39
2021/08/01 03:49:20;;;;;;;11.45;7.95;;;;;;;20.47;91.30;100391.99;1728943;82;21051;-40
2021/08/01 03:51:46;;;;;;;17.82;9.10;;;;;;;20.60;90.67;100394.26;1707316;82;20976;-40
2021/08/01 03:54:13;;;;;;;12.73;8.15;;;;;;;20.78;90.24;100400.15;1704817;83;20909;-39
2021/08/01 03:56:43;;;;;;;20.15;8.03;;;;;;;21.03;89.97;100403.04;1730361;82;20980;-40
2021/08/01 03:59:12;;;;;;;13.55;7.12;;;;;;;21.34;89.49;100396.66;1728283;82;20968;-39
2021/08/01 04:01:39;;;;;;;13.98;7.95;;;;;;;21.68;88.36;100389.69;1704693;82;21096;-39
2021/08/01 04:04:06;;;;;;;11.08;7.60;;;;;;;22.01;86.93;100387.05;1728376;82;21019;-39
2021/08/01 04:06:35;;;;;;;13.38;7.45;;;;;;;22.34;85.24;100386.99;1734409;82;20980;-39
2021/08/01 04:09:06;;;;;;;12.65;7.60;;;;;;;22.70;83.31;100390.32;1727873;82;22152;-39
2021/08/01 04:11:36;;;;;;;12.78;6.97;;;;;;;23.01;81.91;100385.02;1728793;82;20983;-39
2021/08/01 04:14:03;;;;;;;10.98;7.30;;;;;;;23.33;80.59;100384.95;1727349;82;21153;-39
2021/08/01 04:16:29;;;;;;;9.45;6.75;;;;;;;23.66;79.08;100388.22;1733756;82;21533;-39
2021/08/01 04:18:57;;;;;;;13.85;7.42;;;;;;;24.00;77.34;100387.94;1725947;82;21564;-39
2021/08/01 04:21:24;;;;;;;14.18;6.97;;;;;;;24.28;75.74;100387.19;1726521;82;21541;-39
2021/08/01 04:23:51;;;;;;;10.48;6.87;;;;;;;24.56;74.30;100381.88;1734698;81;21058;-39
2021/08/01 04:26:18;;;;;;;10.35;6.78;;;;;;;24.80;72.65;100390.19;1729526;82;21157;-39
2021/08/01 04:28:44;;;;;;;11.80;6.70;;;;;;;25.04;71.46;100385.22;1733951;82;20931;-39
2021/08/01 04:31:11;;;;;;;16.30;6.78;;;;;;;25.32;70.11;100389.58;1712266;81;20944;-39
2021/08/01 04:33:37;;;;;;;8.80;6.53;;;;;;;25.58;68.26;100379.98;1708913;82;20952;-39
2021/08/01 04:36:04;;;;;;;6.70;6.00;;;;;;;25.73;66.19;100381.37;1727599;81;20936;-39
2021/08/01 04:38:31;;;;;;;11.18;6.37;;;;;;;25.83;65.11;100384.91;1726820;82;21098;-41
2021/08/01 04:40:57;;;;;;;11.05;6.80;;;;;;;25.96;64.49;100387.86;1722005;82;21613;-40
2021/08/01 04:43:24;;;;;;;9.75;6.58;;;;;;;26.18;64.37;100392.70;1723167;82;21489;-40
2021/08/01 04:45:51;;;;;;;7.42;5.72;;;;;;;26.44;64.29;100388.27;1720586;82;21008;-40
2021/08/01 04:48:17;;;;;;;9.43;6.17;;;;;;;26.78;62.33;100391.94;1728747;82;21007;-41
2021/08/01 04:50:43;;;;;;;11.08;6.50;;;;;;;26.95;61.21;100395.78;1721165;82;21891;-40
2021/08/01 04:53:10;;;;;;;24.10;6.87;;;;;;;27.06;61.40;100390.84;1723181;82;22557;-41
2021/08/01 04:55:36;;;;;;;21.52;7.45;;;;;;;27.30;59.68;100391.78;1725379;82;21480;-41
2021/08/01 04:58:03;;;;;;;32.30;8.53;;;;;;;27.58;59.14;100394.61;1729474;82;20972;-41
2021/08/01 05:00:30;;;;;;;25.80;7.97;;;;;;;27.75;57.27;100393.05;1708069;82;20984;-40
2021/08/01 05:03:01;;;;;;;19.77;6.55;;;;;;;27.90;57.00;100384.60;1707353;83;21063;-40
2021/08/01 05:05:28;;;;;;;14.60;6.42;;;;;;;28.08;57.16;100386.05;1722812;82;20972;-40
2021/08/01 05:07:54;;;;;;;14.83;6.45;;;;;;;28.28;56.65;100387.32;1723195;82;20972;-41
2021/08/01 05:10:21;;;;;;;19.87;6.45;;;;;;;28.51;54.99;100394.45;1726062;82;21007;-41
2021/08/01 05:12:47;;;;;;;7.92;5.75;;;;;;;28.50;54.63;100388.79;1731511;81;21039;-41
2021/08/01 05:15:15;;;;;;;7.60;5.60;;;;;;;28.51;53.63;100394.45;1723917;82;21012;-40
2021/08/01 05:17:42;;;;;;;10.72;6.08;;;;;;;28.54;53.83;100390.17;1718870;82;21031;-41
2021/08/01 05:20:10;;;;;;;9.03;5.80;;;;;;;28.75;53.92;100395.73;1706369;83;21024;-40
2021/08/01 05:22:36;;;;;;;11.88;6.25;;;;;;;28.93;53.31;100397.98;1722383;81;20980;-40
2021/08/01 05:25:05;;;;;;;9.78;6.33;;;;;;;29.15;52.34;100393.18;1721919;82;21214;-39
2021/08/01 05:27:31;;;;;;;8.75;5.70;;;;;;;29.25;52.46;100397.95;1708486;82;21094;-40
2021/08/01 05:29:58;;;;;;;15.68;5.85;;;;;;;29.46;52.60;100395.52;1721475;82;20965;-40
2021/08/01 05:32:24;;;;;;;7.15;5.75;;;;;;;29.66;51.80;100392.64;1723544;82;20940;-39
2021/08/01 05:34:51;;;;;;;8.75;5.95;;;;;;;29.69;51.04;100399.03;1713501;83;21056;-39
2021/08/01 05:37:17;;;;;;;14.93;5.95;;;;;;;29.68;51.21;100399.99;1720728;82;21534;-40
2021/08/01 05:39:44;;;;;;;8.90;6.00;;;;;;;29.70;51.95;100403.85;1713963;82;21954;-40
2021/08/01 05:42:11;;;;;;;14.55;6.20;;;;;;;29.85;52.12;100396.97;1735058;81;20971;-39
2021/08/01 05:44:37;;;;;;;15.65;6.30;;;;;;;30.05;51.83;100397.63;1738204;82;20897;-39
2021/08/01 05:47:07;;;;;;;14.90;6.80;;;;;;;30.21;51.22;100392.87;1729437;82;20976;-40
2021/08/01 05:49:34;;;;;;;9.75;6.53;;;;;;;30.40;50.54;100397.13;1732309;82;20956;-40
2021/08/01 05:52:03;;;;;;;11.05;6.58;;;;;;;30.51;49.96;100401.86;1734314;81;21162;-40
2021/08/01 05:54:31;;;;;;;16.17;6.50;;;;;;;30.54;49.43;100399.69;1732811;82;21007;-41
2021/08/01 05:56:57;;;;;;;16.50;6.80;;;;;;;30.52;49.32;100399.53;1737163;82;21027;-40
2021/08/01 05:59:24;;;;;;;16.27;6.75;;;;;;;30.49;49.13;100397.19;1714411;82;21041;-40
2021/08/01 06:01:52;;;;;;;11.00;6.83;;;;;;;30.45;49.46;100400.66;1730877;82;20893;-39
2021/08/01 06:04:19;;;;;;;22.40;7.03;;;;;;;30.48;49.94;100400.84;1733990;82;21107;-40
2021/08/01 06:06:45;;;;;;;12.55;7.40;;;;;;;30.59;48.98;100397.06;1731312;82;20924;-41
2021/08/01 06:09:11;;;;;;;10.45;6.80;;;;;;;30.59;48.68;100401.88;1733106;81;21509;-41
2021/08/01 06:11:38;;;;;;;14.33;6.97;;;;;;;30.59;48.81;100400.55;1733759;81;21577;-41
2021/08/01 06:14:05;;;;;;;11.60;7.08;;;;;;;30.57;48.41;100400.36;1730888;81;21063;-40
2021/08/01 06:16:31;;;;;;;17.70;6.45;;;;;;;30.56;48.48;100404.88;1732131;82;21741;-39
2021/08/01 06:18:57;;;;;;;8.45;6.58;;;;;;;30.58;48.40;100400.21;1726013;82;21027;-40
2021/08/01 06:21:24;;;;;;;8.45;6.03;;;;;;;30.51;48.30;100396.52;1704467;82;21029;-40
2021/08/01 06:23:52;;;;;;;12.30;6.58;;;;;;;30.48;48.29;100394.17;1746333;80;21466;-41
2021/08/01 06:26:20;;;;;;;12.58;6.75;;;;;;;30.45;47.88;100401.17;1743249;81;21098;-40
2021/08/01 06:28:47;;;;;;;11.78;6.33;;;;;;;30.51;48.60;100408.02;1721117;82;21187;-41
2021/08/01 06:31:14;;;;;;;17.60;7.03;;;;;;;30.57;48.01;100404.36;1712431;82;21031;-41
2021/08/01 06:33:40;;;;;;;13.58;6.80;;;;;;;30.62;47.42;100408.78;1729080;81;21556;-41
2021/08/01 06:36:09;;;;;;;12.65;6.53;;;;;;;30.68;47.99;100411.62;1732596;82;21050;-41
2021/08/01 06:38:37;;;;;;;14.25;7.00;;;;;;;30.66;47.13;100402.94;1732356;82;21541;-40
2021/08/01 06:41:03;;;;;;;15.23;7.28;;;;;;;30.58;46.86;100400.73;1726304;82;21293;-40
2021/08/01 06:43:30;;;;;;;9.50;7.33;;;;;;;30.48;47.27;100404.86;1732487;82;20944;-40
2021/08/01 06:45:57;;;;;;;12.20;7.25;;;;;;;30.45;48.32;100403.84;1727817;81;20952;-40
2021/08/01 06:48:24;;;;;;;12.65;6.37;;;;;;;30.48;48.55;100399.52;1727478;82;20932;-40
2021/08/01 06:50:51;;;;;;;10.43;6.40;;;;;;;30.52;48.25;100398.19;1729276;82;21015;-40
2021/08/01 06:54:31;;;;;;;11.43;5.97;;;;;;;30.51;47.33;100397.86;1799446;79;22783;-41
2021/08/01 06:56:58;;;;;;;11.35;6.12;;;;;;;30.52;46.31;100394.19;1763883;80;22140;-41
2021/08/01 06:59:25;;;;;;;13.10;6.10;;;;;;;30.52;45.63;100392.85;1757416;80;20948;-41
2021/08/01 07:01:52;;;;;;;12.95;6.58;;;;;;;30.54;47.16;100391.67;1734607;81;20993;-42
2021/08/01 07:04:18;;;;;;;8.03;6.20;;;;;;;30.60;46.71;100398.21;1752315;80;21031;-40
2021/08/01 07:06:45;;;;;;;11.93;5.75;;;;;;;30.67;45.84;100395.26;1764789;80;21567;-41
2021/08/01 07:09:12;;;;;;;11.20;6.20;;;;;;;30.75;44.93;100401.64;1761225;80;21647;-42
2021/08/01 07:11:39;;;;;;;9.80;6.45;;;;;;;30.78;44.81;100406.14;1768595;80;21913;-42
2021/08/01 07:14:05;;;;;;;32.30;7.17;;;;;;;30.83;46.13;100402.99;1761558;80;21603;-41
2021/08/01 07:16:34;;;;;;;22.85;7.80;;;;;;;30.81;43.33;100396.47;1761141;80;21001;-42
2021/08/01 07:19:01;;;;;;;15.63;6.45;;;;;;;30.80;44.64;100406.81;1764257;80;20944;-42
2021/08/01 07:21:28;;;;;;;17.82;6.92;;;;;;;30.93;43.52;100402.86;1761367;80;21019;-41
2021/08/01 07:23:54;;;;;;;18.45;6.87;;;;;;;31.02;45.39;100409.87;1758564;80;21103;-42
2021/08/01 07:26:20;;;;;;;52.73;7.50;;;;;;;31.02;44.00;100403.72;1738928;81;20912;-41
2021/08/01 07:28:47;;;;;;;8.83;5.35;;;;;;;31.11;44.48;100408.06;1722919;82;21478;-42
2021/08/01 07:31:13;;;;;;;6.72;5.65;;;;;;;31.27;43.61;100402.45;1746491;82;21015;-43
2021/08/01 07:33:39;;;;;;;12.70;5.42;;;;;;;31.39;44.05;100407.78;1730678;82;21050;-43
2021/08/01 07:36:07;;;;;;;9.40;6.12;;;;;;;31.52;42.44;100404.13;1727792;82;20971;-41
2021/08/01 07:38:34;;;;;;;12.03;6.00;;;;;;;31.76;42.24;100409.61;1730635;82;20991;-41
2021/08/01 07:41:00;;;;;;;12.95;5.35;;;;;;;31.82;41.29;100404.46;1726898;82;20964;-40
2021/08/01 07:43:27;;;;;;;11.97;5.92;;;;;;;31.84;41.38;100407.47;1735818;82;21462;-41
2021/08/01 07:45:53;;;;;;;23.92;6.08;;;;;;;31.96;42.91;100406.13;1739461;82;20990;-40
2021/08/01 07:48:20;;;;;;;21.68;6.33;;;;;;;32.16;41.71;100408.39;1745448;82;21130;-41
2021/08/01 07:50:46;;;;;;;48.95;6.90;;;;;;;32.32;37.11;100401.70;1713867;82;21055;-41
2021/08/01 07:53:13;;;;;;;18.00;6.15;;;;;;;32.24;37.72;100415.09;1740203;82;21019;-41
2021/08/01 07:55:42;;;;;;;14.15;5.35;;;;;;;32.29;37.04;100405.17;1733540;82;20893;-41
2021/08/01 07:58:07;;;;;;;22.00;6.12;;;;;;;32.45;37.86;100411.00;1733876;82;21023;-41
2021/08/01 08:00:34;;;;;;;23.25;5.92;;;;;;;32.57;36.64;100414.98;1728764;82;21130;-40
2021/08/01 08:03:00;;;;;;;32.73;6.80;;;;;;;32.61;36.18;100412.80;1734647;82;20972;-40
2021/08/01 08:05:27;;;;;;;21.05;5.70;;;;;;;32.64;37.08;100413.79;1723857;82;21161;-41
2021/08/01 08:07:54;;;;;;;12.78;5.20;;;;;;;32.76;37.45;100423.09;1722824;82;20952;-40
2021/08/01 08:10:20;;;;;;;14.53;5.72;;;;;;;32.93;37.93;100413.66;1702223;83;21427;-40
2021/08/01 08:12:47;;;;;;;18.95;5.90;;;;;;;33.12;36.65;100414.22;1720296;82;21198;-41
2021/08/01 08:15:16;;;;;;;20.32;5.65;;;;;;;33.30;36.18;100420.63;1729199;82;20972;-41
2021/08/01 08:17:43;;;;;;;27.15;6.80;;;;;;;33.37;35.28;100422.91;1721378;82;21451;-41
2021/08/01 08:20:12;;;;;;;21.12;6.58;;;;;;;33.42;35.60;100423.72;1722672;82;21498;-40
2021/08/01 08:22:39;;;;;;;18.12;7.22;;;;;;;33.38;35.79;100425.42;1708710;83;20960;-40
2021/08/01 08:25:07;;;;;;;15.43;6.10;;;;;;;33.43;37.02;100426.75;1722130;82;21121;-40
2021/08/01 08:27:33;;;;;;;9.53;6.15;;;;;;;33.52;35.37;100413.11;1702943;83;21207;-39
2021/08/01 08:30:00;;;;;;;18.73;5.85;;;;;;;33.73;35.52;100412.92;1727320;82;20948;-42
2021/08/01 08:32:26;;;;;;;18.32;5.78;;;;;;;34.04;35.36;100413.31;1707589;82;20932;-41
2021/08/01 08:34:52;;;;;;;22.22;5.67;;;;;;;34.30;34.34;100413.36;1714980;82;21497;-40
2021/08/01 08:37:19;;;;;;;36.50;6.20;;;;;;;34.51;33.28;100419.33;1716467;83;22377;-39
2021/08/01 08:39:46;;;;;;;29.50;6.53;;;;;;;34.56;32.55;100412.06;1713670;83;20993;-40
2021/08/01 08:42:15;;;;;;;17.02;5.22;;;;;;;34.57;34.56;100415.06;1693449;83;21001;-40
2021/08/01 08:44:42;;;;;;;16.00;5.67;;;;;;;34.66;33.29;100412.58;1674891;85;21010;-40
2021/08/01 08:47:08;;;;;;;18.37;5.90;;;;;;;34.71;32.16;100415.20;1700782;83;21027;-40
2021/08/01 08:49:37;;;;;;;19.07;6.00;;;;;;;34.79;32.96;100414.59;1719102;83;21152;-40
2021/08/01 08:52:06;;;;;;;21.90;7.45;;;;;;;34.83;32.06;100411.02;1726993;82;21039;-41
2021/08/01 08:54:48;;;;;;;19.87;6.22;;;;;;;34.51;33.38;100414.48;1700867;82;21019;-41
2021/08/01 08:57:26;;;;;;;71.40;8.70;;;;;;;34.33;32.45;100410.29;1734128;82;20984;-40
2021/08/01 09:00:00;;;;;;;28.83;6.95;;;;;;;34.16;35.22;100416.37;1734080;82;20972;-41
2021/08/01 09:02:26;;;;;;;23.25;6.62;;;;;;;34.03;34.26;100422.38;1719969;82;21154;-41
2021/08/01 09:04:53;;;;;;;15.55;5.25;;;;;;;33.97;33.39;100416.38;1719248;82;20976;-41
2021/08/01 09:07:20;;;;;;;20.80;5.50;;;;;;;33.67;33.79;100416.31;1720649;82;20980;-41
2021/08/01 09:09:47;;;;;;;15.98;5.67;;;;;;;33.17;33.96;100413.17;1715994;83;21050;-40
2021/08/01 09:12:13;;;;;;;23.07;5.80;;;;;;;32.91;34.62;100410.33;1702245;83;20943;-40
2021/08/01 09:14:40;;;;;;;19.23;5.85;;;;;;;32.96;34.37;100406.09;1719111;82;21131;-44
2021/08/01 09:17:08;;;;;;;18.90;6.03;;;;;;;33.22;34.02;100407.61;1719044;83;20964;-41
2021/08/01 09:19:36;;;;;;;14.03;5.67;;;;;;;33.42;34.10;100404.45;1719528;83;20968;-41
2021/08/01 09:22:19;;;;;;;27.48;5.85;;;;;;;33.61;35.65;100400.95;1719148;83;20983;-39
2021/08/01 09:24:48;;;;;;;10.32;5.53;;;;;;;33.84;33.59;100401.41;1719195;83;21003;-40
2021/08/01 09:27:30;;;;;;;12.00;4.97;;;;;;;34.07;34.51;100405.38;1682225;85;21140;-40
2021/08/01 09:29:57;;;;;;;8.40;5.17;;;;;;;34.03;33.22;100406.27;1682197;84;20940;-40
2021/08/01 09:32:24;;;;;;;14.43;5.67;;;;;;;33.96;33.43;100404.83;1702785;83;21031;-41
2021/08/01 09:34:51;;;;;;;9.73;5.33;;;;;;;33.95;34.05;100408.99;1719203;83;21541;-41
2021/08/01 09:37:32;;;;;;;6.53;5.15;;;;;;;33.91;33.01;100395.63;1703100;83;20992;-40
2021/08/01 09:40:12;;;;;;;36.42;6.33;;;;;;;33.93;33.50;100391.75;1719115;83;21242;-40
2021/08/01 09:42:44;;;;;;;12.25;6.03;;;;;;;33.87;32.21;100388.96;1703000;83;20917;-41
2021/08/01 09:45:19;;;;;;;8.55;5.50;;;;;;;33.55;33.39;100386.93;1702375;83;21313;-40
2021/08/01 09:47:47;;;;;;;8.85;5.25;;;;;;;33.51;35.00;100384.62;1719293;82;21466;-41
2021/08/01 09:50:16;;;;;;;21.48;6.60;;;;;;;33.91;35.11;100387.08;1719178;83;20983;-40
2021/08/01 09:52:43;;;;;;;16.10;5.55;;;;;;;34.31;34.83;100376.58;1719301;82;21061;-41
2021/08/01 09:55:18;;;;;;;25.85;6.22;;;;;;;34.67;34.63;100379.31;1720867;82;21498;-41
2021/08/01 09:57:57;;;;;;;39.38;7.12;;;;;;;35.00;32.04;100371.81;1664278;84;20963;-41
2021/08/01 10:00:23;;;;;;;20.45;6.20;;;;;;;35.23;32.90;100378.36;1686424;85;21332;-40
2021/08/01 10:02:50;;;;;;;10.48;5.58;;;;;;;35.41;34.06;100384.61;1686518;85;21022;-41
2021/08/01 10:05:21;;;;;;;42.20;6.75;;;;;;;35.49;31.83;100376.38;1658904;85;21485;-41
2021/08/01 10:07:50;;;;;;;93.97;8.43;;;;;;;35.57;29.66;100372.75;1655372;85;20955;-41
2021/08/01 10:10:23;;;;;;;40.95;7.67;;;;;;;35.49;31.28;100367.50;1686475;85;20979;-41
2021/08/01 10:12:55;;;;;;;14.60;6.08;;;;;;;35.50;32.08;100374.05;1686689;85;20944;-41
2021/08/01 10:15:21;;;;;;;16.95;6.05;;;;;;;35.60;32.20;100371.55;1686565;85;21077;-41
2021/08/01 10:17:48;;;;;;;13.75;6.12;;;;;;;35.66;32.74;100366.71;1686372;85;21875;-41
2021/08/01 10:20:14;;;;;;;10.00;5.83;;;;;;;35.50;31.30;100368.66;1658860;85;21690;-41
2021/08/01 10:22:42;;;;;;;13.13;6.50;;;;;;;35.27;31.76;100365.37;1686627;85;21441;-41
2021/08/01 10:25:12;;;;;;;21.45;6.70;;;;;;;35.22;32.03;100356.00;1686334;85;20952;-41
2021/08/01 10:27:46;;;;;;;30.15;7.30;;;;;;;35.31;33.25;100347.28;1686575;85;21548;-41
2021/08/01 10:30:15;;;;;;;23.98;7.20;;;;;;;35.24;32.88;100355.32;1686658;85;21845;-41
2021/08/01 10:32:43;;;;;;;25.75;6.75;;;;;;;35.19;31.16;100355.05;1659341;85;21034;-41
2021/08/01 10:35:16;;;;;;;14.38;6.47;;;;;;;35.26;32.52;100358.33;1686545;85;21251;-41
2021/08/01 10:37:54;;;;;;;9.00;5.80;;;;;;;35.39;32.98;100348.50;1686697;85;21551;-41
2021/08/01 10:40:25;;;;;;;29.15;6.78;;;;;;;35.63;33.12;100345.58;1686387;85;21026;-39
2021/08/01 10:42:55;;;;;;;31.62;7.30;;;;;;;35.76;31.41;100347.53;1659155;85;21149;-42
2021/08/01 10:45:21;;;;;;;21.00;6.83;;;;;;;35.76;31.93;100351.06;1686572;85;20944;-41
2021/08/01 10:47:51;;;;;;;25.77;7.28;;;;;;;35.89;30.08;100342.73;1686504;85;20935;-41
2021/08/01 10:50:24;;;;;;;11.38;6.15;;;;;;;35.76;30.46;100337.61;1658747;85;20940;-40
2021/08/01 10:53:09;;;;;;;12.98;6.62;;;;;;;35.91;31.01;100339.33;1686603;85;21021;-40
2021/08/01 10:55:36;;;;;;;12.85;5.95;;;;;;;36.10;31.71;100338.63;1601471;88;21113;-40
2021/08/01 10:58:14;;;;;;;24.98;6.30;;;;;;;36.25;31.44;100333.60;1653519;85;21020;-40
2021/08/01 11:01:02;;;;;;;22.55;6.65;;;;;;;36.07;31.70;100340.38;1679071;85;20995;-43
2021/08/01 11:03:32;;;;;;;17.55;6.65;;;;;;;35.84;31.60;100339.81;1678965;85;20968;-42
2021/08/01 11:05:59;;;;;;;36.42;7.03;;;;;;;35.90;32.03;100334.98;1678548;85;20979;-42
2021/08/01 11:08:26;;;;;;;16.57;6.55;;;;;;;36.02;31.22;100332.08;1679175;85;21850;-41
2021/08/01 11:11:16;;;;;;;9.95;6.20;;;;;;;36.19;32.04;100333.91;1679077;85;20980;-41
2021/08/01 11:13:48;;;;;;;20.02;5.97;;;;;;;36.22;29.18;100321.89;1679012;85;21039;-40
2021/08/01 11:16:33;;;;;;;14.85;6.28;;;;;;;36.24;30.37;100327.40;1679224;85;21533;-42
2021/08/01 11:19:00;;;;;;;11.57;6.15;;;;;;;36.18;31.37;100327.36;1645933;87;20981;-41
2021/08/01 11:21:37;;;;;;;8.43;5.55;;;;;;;35.89;29.84;100327.93;1679176;84;21799;-41
2021/08/01 11:24:10;;;;;;;10.00;6.20;;;;;;;35.93;30.22;100321.95;1678861;85;20948;-40
2021/08/01 11:27:06;;;;;;;13.35;6.05;;;;;;;36.07;30.16;100318.84;1679238;85;21553;-42
2021/08/01 11:29:45;;;;;;;;;;;;;;;36.14;31.32;100322.92;1681299;85;21039;-40
2021/08/01 11:32:13;;;;;;;10.03;5.80;;;;;;;35.87;31.18;100321.92;1662033;85;20146;-40